Washburn, IA

7:22 AM CST on February 10, 2016 (GMT -0600)
Columbus Dr - Waterloo | | Change Station
CLOSE
Current Station
Personal Weather Station
Location: Waterloo, IA
Elevation: 910 ft
Nearby Weather Stations

Elev 910 ft 42.47 °N, 92.34 °W | Updated 5 seconds ago

Partly Cloudy
Partly Cloudy
6.4 °F
Feels Like 6 °F
N
0.9
Wind Variable Wind from WNW
Gusts 2.0 mph

Today
High -- | Low -- °F
--% Chance of Precip.
Yesterday
High -- | Low -- °F
Precip. -- in
Pressure 30.17 in
Visibility 10.0 miles
Clouds Scattered Clouds 12000 ft
Windchill 6 °F
Dew Point 2 °F
Humidity 82%
Rainfall 0.00 in
Snow Depth Not available.
7:13 AM 5:34 PM
Waxing Crescent, 5% visible
METAR KALO 101254Z 31004KT 10SM SCT120 M16/M18 A3011 RMK AO2 SLP215 T11561183
Pressure 30.17 in
Visibility 10.0 miles
Clouds Scattered Clouds 12000 ft
Windchill 6 °F
Dew Point 2 °F
Humidity 82%
Rainfall 0.00 in
Snow Depth Not available.
7:13 AM 5:34 PM
Waxing Crescent, 5% visible
METAR KALO 101254Z 31004KT 10SM SCT120 M16/M18 A3011 RMK AO2 SLP215 T11561183

10-Day Weather Forecast

Almanac

Astronomy

Feb. 10, 2016 Rise Set
Actual Time
Civil Twilight
Nautical Twilight
Astronomical Twilight
Moon
Length of Visible Light
Length of Day
Tomorrow will be .
, % of the Moon is Illuminated

Today's Extremes

State Highs State Lows

Community

WunderPhotos

Upload Photos

1,891,840 photos uploaded!

WunderBlog® & News

Nearby

Air Quality

  Air Quality AQ Index Pollutant
Not available.

Snow Depth

Station Depth Elevation

Earthquake Activity

City Distance Mag. Time & Date
Minimum magnitude displayed is 2.5.

Coastal Water Temperatures

Place Temperature

Stations

Nearby Weather Stations

Station Location Temp. Windchill Dew Point Humidity Wind Precip. Elev Updated Type
                   

Watches & Warnings

There are currently no watches in effect.